Aviation Digital Data Service (ADDS)

Output produced by METARs form (1708 UTC 29 May 2017)
found at http://www.aviationweather.gov/adds/metars/
 
EKYT 291650Z AUTO 23008KT 9999NDV SCT007/// OVC009/// 15/13 Q1012
TAF AMD EKYT 291503Z 2915/3012 VRB06KT 9999 BKN008 
     TEMPO 2915/2918 BKN010 
     TEMPO 2923/3006 3000 BR 
     TEMPO 3006/3012 6000 -SHRA SCT040CB
       
EKAH 291650Z AUTO 31004KT 260V320 9999NDV OVC010/// 15/11 Q1013
TAF EKAH 291655Z 2918/3018 27006KT 8000 BKN012 
     TEMPO 2918/2924 BKN008 
     TEMPO 3000/3009 4000 BR BKN006 
     TEMPO 3009/3018 4000 -RADZ BR BKN008
       
EKBI 291650Z AUTO 27006KT 9999NDV OVC009/// 13/11 Q1013
TAF EKBI 291655Z 2918/3018 27006KT 8000 BKN008 
     TEMPO 2918/2924 BKN010 
     TEMPO 3000/3009 2500 BR BKN004 
     TEMPO 3009/3018 4000 -RADZ BR BKN010
       
EKRN 291650Z AUTO 29004KT 260V320 6000NDV BKN005/// 14/12 Q1013
TAF AMD EKRN 291641Z 2916/2921 27005KT 7000 BKN010 
     TEMPO 2916/2921 4000 BR BKN004
       
EKEB 291650Z AUTO 30005KT 9999NDV OVC008/// 13/11 Q1013
TAF EKEB 291426Z 2915/2922 30012KT 8000 BKN007 
     TEMPO 2915/2920 -SHRA BKN012 SCT030CB 
     TEMPO 2920/2922 2000 BR BKN003
       
EKKA 291650Z AUTO 24005KT 9999NDV OVC008/// 14/12 Q1012
TAF AMD EKKA 291515Z 2915/3012 27006KT 9000 BKN008 
     TEMPO 2915/2918 BKN010 
     BECMG 2918/2921 VRB05KT 
     TEMPO 2921/3008 2500 BR -SHRA BKN004 SCT050CB 
     TEMPO 3008/3012 6000 -SHRA SCT050CB
       
EKCH 291650Z 05005KT 9999 BKN014 15/12 Q1013 NOSIG
TAF EKCH 291655Z 2918/3018 18008KT 8000 BKN015 
     TEMPO 2918/2924 BKN012 
     TEMPO 3000/3009 4000 BR BKN008 
     TEMPO 3009/3015 4000 SHRA TSRA BR BKN010 SCT030CB 
     TEMPO 3015/3018 SHRA BKN010 SCT030CB
       
EKVD 291650Z AUTO 25007KT //// ///////// 14/12 Q1013
EKAH 291650Z AUTO 31004KT 260V320 9999NDV OVC010/// 15/11 Q1013
TAF EKAH 291655Z 2918/3018 27006KT 8000 BKN012 
     TEMPO 2918/2924 BKN008 
     TEMPO 3000/3009 4000 BR BKN006 
     TEMPO 3009/3018 4000 -RADZ BR BKN008
       
EKBI 291650Z AUTO 27006KT 9999NDV OVC009/// 13/11 Q1013
TAF EKBI 291655Z 2918/3018 27006KT 8000 BKN008 
     TEMPO 2918/2924 BKN010 
     TEMPO 3000/3009 2500 BR BKN004 
     TEMPO 3009/3018 4000 -RADZ BR BKN010
       
EKCH 291650Z 05005KT 9999 BKN014 15/12 Q1013 NOSIG
TAF EKCH 291655Z 2918/3018 18008KT 8000 BKN015 
     TEMPO 2918/2924 BKN012 
     TEMPO 3000/3009 4000 BR BKN008 
     TEMPO 3009/3015 4000 SHRA TSRA BR BKN010 SCT030CB 
     TEMPO 3015/3018 SHRA BKN010 SCT030CB
       
EKEB 291650Z AUTO 30005KT 9999NDV OVC008/// 13/11 Q1013
TAF EKEB 291426Z 2915/2922 30012KT 8000 BKN007 
     TEMPO 2915/2920 -SHRA BKN012 SCT030CB 
     TEMPO 2920/2922 2000 BR BKN003
       
TAF EKGF 291500Z 2915/2922 36008KT 9999 BKN006 
     TEMPO 2915/2922 SCT007 BKN010
       
EKKA 291650Z AUTO 24005KT 9999NDV OVC008/// 14/12 Q1012
TAF AMD EKKA 291515Z 2915/3012 27006KT 9000 BKN008 
     TEMPO 2915/2918 BKN010 
     BECMG 2918/2921 VRB05KT 
     TEMPO 2921/3008 2500 BR -SHRA BKN004 SCT050CB 
     TEMPO 3008/3012 6000 -SHRA SCT050CB
       
EKOD 291650Z 24005KT 210V290 9999 OVC011 15/13 Q1013
TAF AMD EKOD 291547Z 2915/2918 25008KT 9999 BKN012
       
EKRK 291650Z AUTO 29003KT 9999NDV OVC012/// 15/12 Q1013
TAF EKRK 291426Z 2915/2924 24005KT 9999 BKN010 
     TEMPO 2915/2924 SCT012 BKN015
       
EKRN 291650Z AUTO 29004KT 260V320 6000NDV BKN005/// 14/12 Q1013
TAF AMD EKRN 291641Z 2916/2921 27005KT 7000 BKN010 
     TEMPO 2916/2921 4000 BR BKN004
       
EKSB 291651Z 32005KT CAVOK 15/14 Q1012
TAF EKSB 291459Z 2915/2922 30008KT 9999 BKN015 
     TEMPO 2915/2919 4000 SHRA BKN012 SCT030CB 
     TEMPO 2919/2922 BKN012
       
EKSN 291350Z 20004KT 9999 BKN011 18/13 Q1012
EKSP 291650Z 29005KT 260V320 9000 OVC009 13/12 Q1013
TAF AMD EKSP 291623Z 2916/3012 VRB06KT 9000 BKN008 
     TEMPO 2916/2921 6000 -SHRA SCT040CB 
     TEMPO 2923/3008 2500 BR BKN004 
     TEMPO 3008/3012 4000 TSRA SCT050CB
       
EKVD 291650Z AUTO 25007KT //// ///////// 14/12 Q1013
EKVG 291654Z 13009KT 9999 FEW006 BKN018 10/07 Q1014 RMK WIND 850FT 14007KT
TAF EKVG 291501Z 2915/2920 13010KT 9999 FEW014 BKN020 
     TEMPO 2917/2920 BKN012
       
EKVJ 291350Z 26010KT 7000 BKN006 12/12 Q1014
EKYT 291650Z AUTO 23008KT 9999NDV SCT007/// OVC009/// 15/13 Q1012
TAF AMD EKYT 291503Z 2915/3012 VRB06KT 9999 BKN008 
     TEMPO 2915/2918 BKN010 
     TEMPO 2923/3006 3000 BR 
     TEMPO 3006/3012 6000 -SHRA SCT040CB
       
EKOD 291650Z 24005KT 210V290 9999 OVC011 15/13 Q1013
TAF AMD EKOD 291547Z 2915/2918 25008KT 9999 BKN012
       
EKRK 291650Z AUTO 29003KT 9999NDV OVC012/// 15/12 Q1013
TAF EKRK 291426Z 2915/2924 24005KT 9999 BKN010 
     TEMPO 2915/2924 SCT012 BKN015
       
EKSN 291350Z 20004KT 9999 BKN011 18/13 Q1012
EKSP 291650Z 29005KT 260V320 9000 OVC009 13/12 Q1013
TAF AMD EKSP 291623Z 2916/3012 VRB06KT 9000 BKN008 
     TEMPO 2916/2921 6000 -SHRA SCT040CB 
     TEMPO 2923/3008 2500 BR BKN004 
     TEMPO 3008/3012 4000 TSRA SCT050CB
       
EKSB 291651Z 32005KT CAVOK 15/14 Q1012
TAF EKSB 291459Z 2915/2922 30008KT 9999 BKN015 
     TEMPO 2915/2919 4000 SHRA BKN012 SCT030CB 
     TEMPO 2919/2922 BKN012
       
EKVJ 291350Z 26010KT 7000 BKN006 12/12 Q1014